sensor_id;sensor_type;location;lat;lon;timestamp;temperature;humidity
18733;DHT22;9495;51.210;2.934;2023-01-06T00:01:32;16.00;99.90
18733;DHT22;9495;51.210;2.934;2023-01-06T00:04:01;16.40;99.90
18733;DHT22;9495;51.210;2.934;2023-01-06T00:06:29;16.50;99.90
18733;DHT22;9495;51.210;2.934;2023-01-06T00:08:59;16.50;99.90
18733;DHT22;9495;51.210;2.934;2023-01-06T00:11:28;16.10;99.90
18733;DHT22;9495;51.210;2.934;2023-01-06T00:13:59;16.00;99.90
18733;DHT22;9495;51.210;2.934;2023-01-06T00:16:27;16.40;99.90
18733;DHT22;9495;51.210;2.934;2023-01-06T00:18:57;16.00;99.90
18733;DHT22;9495;51.210;2.934;2023-01-06T00:21:25;15.90;99.90
18733;DHT22;9495;51.210;2.934;2023-01-06T00:23:54;15.90;99.90
18733;DHT22;9495;51.210;2.934;2023-01-06T00:26:22;15.70;99.90
18733;DHT22;9495;51.210;2.934;2023-01-06T00:28:52;16.20;99.90
18733;DHT22;9495;51.210;2.934;2023-01-06T00:31:22;15.80;99.90
18733;DHT22;9495;51.210;2.934;2023-01-06T00:33:50;15.40;99.90
18733;DHT22;9495;51.210;2.934;2023-01-06T00:36:19;15.70;99.90
18733;DHT22;9495;51.210;2.934;2023-01-06T00:38:49;14.90;99.90
18733;DHT22;9495;51.210;2.934;2023-01-06T00:41:18;15.40;99.90
18733;DHT22;9495;51.210;2.934;2023-01-06T00:44:04;15.60;99.90
18733;DHT22;9495;51.210;2.934;2023-01-06T00:46:34;15.20;99.90
18733;DHT22;9495;51.210;2.934;2023-01-06T00:49:03;15.20;99.90
18733;DHT22;9495;51.210;2.934;2023-01-06T00:51:34;15.40;99.90
18733;DHT22;9495;51.210;2.934;2023-01-06T00:54:03;14.80;99.90
18733;DHT22;9495;51.210;2.934;2023-01-06T00:56:34;14.70;99.90
18733;DHT22;9495;51.210;2.934;2023-01-06T00:59:03;15.70;99.90
18733;DHT22;9495;51.210;2.934;2023-01-06T01:01:33;15.60;99.90
18733;DHT22;9495;51.210;2.934;2023-01-06T01:04:02;15.10;99.90
18733;DHT22;9495;51.210;2.934;2023-01-06T01:06:31;15.40;99.90
18733;DHT22;9495;51.210;2.934;2023-01-06T01:09:00;15.70;99.90
18733;DHT22;9495;51.210;2.934;2023-01-06T01:11:29;16.10;99.90
18733;DHT22;9495;51.210;2.934;2023-01-06T01:14:16;15.80;99.90
18733;DHT22;9495;51.210;2.934;2023-01-06T01:16:47;15.60;99.90
18733;DHT22;9495;51.210;2.934;2023-01-06T01:19:15;15.90;99.90
18733;DHT22;9495;51.210;2.934;2023-01-06T01:21:45;16.30;99.90
18733;DHT22;9495;51.210;2.934;2023-01-06T01:24:13;16.40;99.90
18733;DHT22;9495;51.210;2.934;2023-01-06T01:26:42;15.90;99.90
18733;DHT22;9495;51.210;2.934;2023-01-06T01:29:11;16.10;99.90
18733;DHT22;9495;51.210;2.934;2023-01-06T01:31:39;16.00;99.90
18733;DHT22;9495;51.210;2.934;2023-01-06T01:34:11;15.90;99.90
18733;DHT22;9495;51.210;2.934;2023-01-06T01:36:40;15.80;99.90
18733;DHT22;9495;51.210;2.934;2023-01-06T01:39:09;16.00;99.90
18733;DHT22;9495;51.210;2.934;2023-01-06T01:41:38;16.20;99.90
18733;DHT22;9495;51.210;2.934;2023-01-06T01:47:13;15.50;99.90
18733;DHT22;9495;51.210;2.934;2023-01-06T01:49:46;15.20;99.90
18733;DHT22;9495;51.210;2.934;2023-01-06T01:52:15;15.70;99.90
18733;DHT22;9495;51.210;2.934;2023-01-06T01:54:45;15.80;99.90
18733;DHT22;9495;51.210;2.934;2023-01-06T01:57:17;15.80;99.90
18733;DHT22;9495;51.210;2.934;2023-01-06T01:59:46;16.20;99.90
18733;DHT22;9495;51.210;2.934;2023-01-06T02:02:16;16.00;99.90
18733;DHT22;9495;51.210;2.934;2023-01-06T02:04:49;16.30;99.90
18733;DHT22;9495;51.210;2.934;2023-01-06T02:07:19;16.10;99.90
18733;DHT22;9495;51.210;2.934;2023-01-06T02:09:55;16.60;99.90
18733;DHT22;9495;51.210;2.934;2023-01-06T02:12:25;16.80;99.90
18733;DHT22;9495;51.210;2.934;2023-01-06T02:14:53;16.90;99.90
18733;DHT22;9495;51.210;2.934;2023-01-06T02:17:42;16.30;99.90
18733;DHT22;9495;51.210;2.934;2023-01-06T02:20:33;16.10;99.90
18733;DHT22;9495;51.210;2.934;2023-01-06T02:23:35;16.60;99.90
18733;DHT22;9495;51.210;2.934;2023-01-06T02:26:48;16.40;99.90
18733;DHT22;9495;51.210;2.934;2023-01-06T02:32:21;16.70;99.90
18733;DHT22;9495;51.210;2.934;2023-01-06T02:35:04;16.60;99.90
18733;DHT22;9495;51.210;2.934;2023-01-06T02:37:46;16.50;99.90
18733;DHT22;9495;51.210;2.934;2023-01-06T02:40:25;16.30;99.90
18733;DHT22;9495;51.210;2.934;2023-01-06T02:43:07;16.30;99.90
18733;DHT22;9495;51.210;2.934;2023-01-06T02:45:44;16.20;99.90
18733;DHT22;9495;51.210;2.934;2023-01-06T02:48:23;16.40;99.90
18733;DHT22;9495;51.210;2.934;2023-01-06T02:51:00;16.20;99.90
18733;DHT22;9495;51.210;2.934;2023-01-06T02:53:38;16.30;99.90
18733;DHT22;9495;51.210;2.934;2023-01-06T02:56:09;16.40;99.90
18733;DHT22;9495;51.210;2.934;2023-01-06T02:58:43;16.00;99.90
18733;DHT22;9495;51.210;2.934;2023-01-06T03:01:17;16.20;99.90
18733;DHT22;9495;51.210;2.934;2023-01-06T03:03:50;15.90;99.90
18733;DHT22;9495;51.210;2.934;2023-01-06T03:06:23;16.50;99.90
18733;DHT22;9495;51.210;2.934;2023-01-06T03:08:53;16.60;99.90
18733;DHT22;9495;51.210;2.934;2023-01-06T03:11:23;16.00;99.90
18733;DHT22;9495;51.210;2.934;2023-01-06T03:13:57;16.20;99.90
18733;DHT22;9495;51.210;2.934;2023-01-06T03:16:26;16.50;99.90
18733;DHT22;9495;51.210;2.934;2023-01-06T03:18:56;16.80;99.90
18733;DHT22;9495;51.210;2.934;2023-01-06T03:21:28;16.80;99.90
18733;DHT22;9495;51.210;2.934;2023-01-06T03:23:59;16.70;99.90
18733;DHT22;9495;51.210;2.934;2023-01-06T03:26:27;17.00;99.90
18733;DHT22;9495;51.210;2.934;2023-01-06T03:28:55;17.00;99.90
18733;DHT22;9495;51.210;2.934;2023-01-06T03:31:30;17.40;99.90
18733;DHT22;9495;51.210;2.934;2023-01-06T03:34:08;17.00;99.90
18733;DHT22;9495;51.210;2.934;2023-01-06T03:36:47;17.30;99.90
18733;DHT22;9495;51.210;2.934;2023-01-06T03:39:17;17.10;99.90
18733;DHT22;9495;51.210;2.934;2023-01-06T03:41:53;17.30;99.90
18733;DHT22;9495;51.210;2.934;2023-01-06T03:45:08;17.20;99.90
18733;DHT22;9495;51.210;2.934;2023-01-06T03:47:44;17.00;99.90
18733;DHT22;9495;51.210;2.934;2023-01-06T03:50:22;17.30;99.90
18733;DHT22;9495;51.210;2.934;2023-01-06T03:52:57;17.30;99.90
18733;DHT22;9495;51.210;2.934;2023-01-06T03:55:30;16.90;99.90
18733;DHT22;9495;51.210;2.934;2023-01-06T03:58:02;17.10;99.90
18733;DHT22;9495;51.210;2.934;2023-01-06T04:00:34;17.20;99.90
18733;DHT22;9495;51.210;2.934;2023-01-06T04:03:08;17.30;99.90
18733;DHT22;9495;51.210;2.934;2023-01-06T04:05:41;16.90;99.90
18733;DHT22;9495;51.210;2.934;2023-01-06T04:08:09;16.80;99.90
18733;DHT22;9495;51.210;2.934;2023-01-06T04:10:38;16.90;99.90
18733;DHT22;9495;51.210;2.934;2023-01-06T04:13:06;17.20;99.90
18733;DHT22;9495;51.210;2.934;2023-01-06T04:15:34;17.10;99.90
18733;DHT22;9495;51.210;2.934;2023-01-06T04:18:02;17.00;99.90
18733;DHT22;9495;51.210;2.934;2023-01-06T04:20:30;17.30;99.90
18733;DHT22;9495;51.210;2.934;2023-01-06T04:23:00;16.90;99.90
18733;DHT22;9495;51.210;2.934;2023-01-06T04:25:29;17.10;99.90
18733;DHT22;9495;51.210;2.934;2023-01-06T04:27:57;17.50;99.90
18733;DHT22;9495;51.210;2.934;2023-01-06T04:30:25;17.40;99.90
18733;DHT22;9495;51.210;2.934;2023-01-06T04:32:54;17.00;99.90
18733;DHT22;9495;51.210;2.934;2023-01-06T04:35:22;17.10;99.90
18733;DHT22;9495;51.210;2.934;2023-01-06T04:37:51;16.90;99.90
18733;DHT22;9495;51.210;2.934;2023-01-06T04:40:20;17.20;99.90
18733;DHT22;9495;51.210;2.934;2023-01-06T04:42:49;17.10;99.90
18733;DHT22;9495;51.210;2.934;2023-01-06T04:45:33;17.20;99.90
18733;DHT22;9495;51.210;2.934;2023-01-06T04:48:02;17.20;99.90
18733;DHT22;9495;51.210;2.934;2023-01-06T04:50:31;17.60;99.90
18733;DHT22;9495;51.210;2.934;2023-01-06T04:52:59;17.40;99.90
18733;DHT22;9495;51.210;2.934;2023-01-06T04:55:29;16.50;99.90
18733;DHT22;9495;51.210;2.934;2023-01-06T04:57:57;17.10;99.90
18733;DHT22;9495;51.210;2.934;2023-01-06T05:00:26;17.30;99.90
18733;DHT22;9495;51.210;2.934;2023-01-06T05:02:54;17.50;99.90
18733;DHT22;9495;51.210;2.934;2023-01-06T05:05:22;17.30;99.90
18733;DHT22;9495;51.210;2.934;2023-01-06T05:07:53;17.00;99.90
18733;DHT22;9495;51.210;2.934;2023-01-06T05:10:21;17.20;99.90
18733;DHT22;9495;51.210;2.934;2023-01-06T05:12:51;16.80;99.90
18733;DHT22;9495;51.210;2.934;2023-01-06T05:15:20;17.10;99.90
18733;DHT22;9495;51.210;2.934;2023-01-06T05:17:48;16.90;99.90
18733;DHT22;9495;51.210;2.934;2023-01-06T05:20:17;16.90;99.90
18733;DHT22;9495;51.210;2.934;2023-01-06T05:22:45;16.90;99.90
18733;DHT22;9495;51.210;2.934;2023-01-06T05:25:14;17.00;99.90
18733;DHT22;9495;51.210;2.934;2023-01-06T05:27:42;16.70;99.90
18733;DHT22;9495;51.210;2.934;2023-01-06T05:30:13;17.10;99.90
18733;DHT22;9495;51.210;2.934;2023-01-06T05:32:41;17.30;99.90
18733;DHT22;9495;51.210;2.934;2023-01-06T05:35:09;16.90;99.90
18733;DHT22;9495;51.210;2.934;2023-01-06T05:37:38;16.70;99.90
18733;DHT22;9495;51.210;2.934;2023-01-06T05:40:07;17.30;99.90
18733;DHT22;9495;51.210;2.934;2023-01-06T05:42:35;17.10;99.90
18733;DHT22;9495;51.210;2.934;2023-01-06T05:45:04;16.80;99.90
18733;DHT22;9495;51.210;2.934;2023-01-06T05:47:34;16.90;99.90
18733;DHT22;9495;51.210;2.934;2023-01-06T05:50:03;16.80;99.90
18733;DHT22;9495;51.210;2.934;2023-01-06T05:52:31;16.80;99.90
18733;DHT22;9495;51.210;2.934;2023-01-06T05:55:00;16.70;99.90
18733;DHT22;9495;51.210;2.934;2023-01-06T05:57:31;16.20;99.90
18733;DHT22;9495;51.210;2.934;2023-01-06T06:00:00;15.70;99.90
18733;DHT22;9495;51.210;2.934;2023-01-06T06:02:28;16.30;99.90
18733;DHT22;9495;51.210;2.934;2023-01-06T06:04:58;16.40;99.90
18733;DHT22;9495;51.210;2.934;2023-01-06T06:07:27;16.20;99.90
18733;DHT22;9495;51.210;2.934;2023-01-06T06:09:55;16.30;99.90
18733;DHT22;9495;51.210;2.934;2023-01-06T06:12:24;16.20;99.90
18733;DHT22;9495;51.210;2.934;2023-01-06T06:14:52;16.30;99.90
18733;DHT22;9495;51.210;2.934;2023-01-06T06:17:20;16.20;99.90
18733;DHT22;9495;51.210;2.934;2023-01-06T06:19:49;15.60;99.90
18733;DHT22;9495;51.210;2.934;2023-01-06T06:22:18;16.00;99.90
18733;DHT22;9495;51.210;2.934;2023-01-06T06:24:47;15.30;99.90
18733;DHT22;9495;51.210;2.934;2023-01-06T06:27:15;15.60;99.90
18733;DHT22;9495;51.210;2.934;2023-01-06T06:29:43;15.10;99.90
18733;DHT22;9495;51.210;2.934;2023-01-06T06:32:12;14.70;99.90
18733;DHT22;9495;51.210;2.934;2023-01-06T06:34:40;14.40;99.90
18733;DHT22;9495;51.210;2.934;2023-01-06T06:37:08;14.30;99.90
18733;DHT22;9495;51.210;2.934;2023-01-06T06:39:39;13.60;99.90
18733;DHT22;9495;51.210;2.934;2023-01-06T06:42:08;13.20;99.90
18733;DHT22;9495;51.210;2.934;2023-01-06T06:44:37;13.00;99.90
18733;DHT22;9495;51.210;2.934;2023-01-06T06:47:05;13.10;99.90
18733;DHT22;9495;51.210;2.934;2023-01-06T06:49:34;12.90;99.90
18733;DHT22;9495;51.210;2.934;2023-01-06T06:52:02;13.10;99.90
18733;DHT22;9495;51.210;2.934;2023-01-06T06:54:31;12.90;99.90
18733;DHT22;9495;51.210;2.934;2023-01-06T06:57:00;12.90;99.90
18733;DHT22;9495;51.210;2.934;2023-01-06T06:59:29;12.90;99.90
18733;DHT22;9495;51.210;2.934;2023-01-06T07:01:57;12.90;99.90
18733;DHT22;9495;51.210;2.934;2023-01-06T07:04:25;13.00;99.90
18733;DHT22;9495;51.210;2.934;2023-01-06T07:06:55;12.70;99.90
18733;DHT22;9495;51.210;2.934;2023-01-06T07:09:23;13.20;99.90
18733;DHT22;9495;51.210;2.934;2023-01-06T07:11:52;13.30;99.90
18733;DHT22;9495;51.210;2.934;2023-01-06T07:14:22;13.30;99.90
18733;DHT22;9495;51.210;2.934;2023-01-06T07:16:50;13.20;99.90
18733;DHT22;9495;51.210;2.934;2023-01-06T07:19:19;13.30;99.90
18733;DHT22;9495;51.210;2.934;2023-01-06T07:21:47;13.10;99.90
18733;DHT22;9495;51.210;2.934;2023-01-06T07:24:16;12.60;99.90
18733;DHT22;9495;51.210;2.934;2023-01-06T07:26:44;12.50;99.90
18733;DHT22;9495;51.210;2.934;2023-01-06T07:29:12;12.50;99.90
18733;DHT22;9495;51.210;2.934;2023-01-06T07:31:42;12.40;99.90
18733;DHT22;9495;51.210;2.934;2023-01-06T07:34:11;12.30;99.90
18733;DHT22;9495;51.210;2.934;2023-01-06T07:36:39;12.30;99.90
18733;DHT22;9495;51.210;2.934;2023-01-06T07:39:08;12.30;99.90
18733;DHT22;9495;51.210;2.934;2023-01-06T07:41:36;12.20;99.90
18733;DHT22;9495;51.210;2.934;2023-01-06T07:44:04;12.10;99.90
18733;DHT22;9495;51.210;2.934;2023-01-06T07:46:33;12.10;99.90
18733;DHT22;9495;51.210;2.934;2023-01-06T07:49:02;12.00;99.90
18733;DHT22;9495;51.210;2.934;2023-01-06T07:51:30;12.00;99.90
18733;DHT22;9495;51.210;2.934;2023-01-06T07:53:59;11.70;99.90
18733;DHT22;9495;51.210;2.934;2023-01-06T07:56:28;11.70;99.90
18733;DHT22;9495;51.210;2.934;2023-01-06T07:58:57;11.60;99.90
18733;DHT22;9495;51.210;2.934;2023-01-06T08:01:25;11.60;99.90
18733;DHT22;9495;51.210;2.934;2023-01-06T08:03:54;11.50;99.90
18733;DHT22;9495;51.210;2.934;2023-01-06T08:06:23;11.50;99.90
18733;DHT22;9495;51.210;2.934;2023-01-06T08:08:52;11.40;99.90
18733;DHT22;9495;51.210;2.934;2023-01-06T08:11:20;11.40;99.90
18733;DHT22;9495;51.210;2.934;2023-01-06T08:13:49;11.30;99.90
18733;DHT22;9495;51.210;2.934;2023-01-06T08:16:17;11.30;99.90
18733;DHT22;9495;51.210;2.934;2023-01-06T08:18:46;11.20;99.90
18733;DHT22;9495;51.210;2.934;2023-01-06T08:21:14;11.20;99.90
18733;DHT22;9495;51.210;2.934;2023-01-06T08:23:44;11.10;99.90
18733;DHT22;9495;51.210;2.934;2023-01-06T08:26:13;11.20;99.90
18733;DHT22;9495;51.210;2.934;2023-01-06T08:28:43;11.20;99.90
18733;DHT22;9495;51.210;2.934;2023-01-06T08:31:13;11.30;99.90
18733;DHT22;9495;51.210;2.934;2023-01-06T08:33:42;11.30;99.90
18733;DHT22;9495;51.210;2.934;2023-01-06T08:36:13;11.30;99.90
18733;DHT22;9495;51.210;2.934;2023-01-06T08:38:43;11.30;99.90
18733;DHT22;9495;51.210;2.934;2023-01-06T08:41:13;11.40;99.90
18733;DHT22;9495;51.210;2.934;2023-01-06T08:43:43;11.30;99.90
18733;DHT22;9495;51.210;2.934;2023-01-06T08:46:14;11.30;99.90
18733;DHT22;9495;51.210;2.934;2023-01-06T08:48:43;11.30;99.90
18733;DHT22;9495;51.210;2.934;2023-01-06T08:51:13;11.20;99.90
18733;DHT22;9495;51.210;2.934;2023-01-06T08:53:43;11.20;99.90
18733;DHT22;9495;51.210;2.934;2023-01-06T08:56:13;11.20;99.90
18733;DHT22;9495;51.210;2.934;2023-01-06T08:58:42;11.10;99.90
18733;DHT22;9495;51.210;2.934;2023-01-06T09:01:17;11.20;99.90
18733;DHT22;9495;51.210;2.934;2023-01-06T09:03:46;11.20;99.90
18733;DHT22;9495;51.210;2.934;2023-01-06T09:06:15;11.20;99.90
18733;DHT22;9495;51.210;2.934;2023-01-06T09:08:45;11.20;99.90
18733;DHT22;9495;51.210;2.934;2023-01-06T09:11:15;11.10;99.90
18733;DHT22;9495;51.210;2.934;2023-01-06T09:13:45;11.10;99.90
18733;DHT22;9495;51.210;2.934;2023-01-06T09:16:13;11.10;99.90
18733;DHT22;9495;51.210;2.934;2023-01-06T09:18:42;11.10;99.90
18733;DHT22;9495;51.210;2.934;2023-01-06T09:21:16;11.10;99.90
18733;DHT22;9495;51.210;2.934;2023-01-06T09:23:46;11.10;99.90
18733;DHT22;9495;51.210;2.934;2023-01-06T09:26:16;11.10;99.90
18733;DHT22;9495;51.210;2.934;2023-01-06T09:28:45;11.10;99.90
18733;DHT22;9495;51.210;2.934;2023-01-06T09:31:13;11.10;99.90
18733;DHT22;9495;51.210;2.934;2023-01-06T09:33:44;11.10;99.90
18733;DHT22;9495;51.210;2.934;2023-01-06T09:36:12;11.20;99.90
18733;DHT22;9495;51.210;2.934;2023-01-06T09:38:41;11.20;99.90
18733;DHT22;9495;51.210;2.934;2023-01-06T09:41:36;11.20;99.90
18733;DHT22;9495;51.210;2.934;2023-01-06T09:44:10;11.30;99.90
18733;DHT22;9495;51.210;2.934;2023-01-06T09:46:42;11.30;99.90
18733;DHT22;9495;51.210;2.934;2023-01-06T09:49:18;11.50;99.90
18733;DHT22;9495;51.210;2.934;2023-01-06T09:51:47;11.60;99.90
18733;DHT22;9495;51.210;2.934;2023-01-06T09:54:18;11.70;99.90
18733;DHT22;9495;51.210;2.934;2023-01-06T09:56:53;12.20;99.90
18733;DHT22;9495;51.210;2.934;2023-01-06T09:59:25;12.20;99.90
18733;DHT22;9495;51.210;2.934;2023-01-06T10:01:55;12.10;99.90
18733;DHT22;9495;51.210;2.934;2023-01-06T10:04:27;11.90;99.90
18733;DHT22;9495;51.210;2.934;2023-01-06T10:07:05;11.80;99.90
18733;DHT22;9495;51.210;2.934;2023-01-06T10:09:41;11.70;99.90
18733;DHT22;9495;51.210;2.934;2023-01-06T10:12:24;11.70;99.90
18733;DHT22;9495;51.210;2.934;2023-01-06T10:15:01;12.00;99.90
18733;DHT22;9495;51.210;2.934;2023-01-06T10:17:51;12.70;99.90
18733;DHT22;9495;51.210;2.934;2023-01-06T10:20:43;13.40;99.90
18733;DHT22;9495;51.210;2.934;2023-01-06T10:23:23;13.50;99.90
18733;DHT22;9495;51.210;2.934;2023-01-06T10:25:55;13.90;99.90
18733;DHT22;9495;51.210;2.934;2023-01-06T10:28:30;14.70;99.90
18733;DHT22;9495;51.210;2.934;2023-01-06T10:31:02;15.60;99.90
18733;DHT22;9495;51.210;2.934;2023-01-06T10:33:34;15.20;99.90
18733;DHT22;9495;51.210;2.934;2023-01-06T10:36:11;13.10;99.90
18733;DHT22;9495;51.210;2.934;2023-01-06T10:38:42;12.50;99.90
18733;DHT22;9495;51.210;2.934;2023-01-06T10:41:17;12.30;99.90
18733;DHT22;9495;51.210;2.934;2023-01-06T10:43:48;12.00;99.90
18733;DHT22;9495;51.210;2.934;2023-01-06T10:46:16;11.90;99.90
18733;DHT22;9495;51.210;2.934;2023-01-06T10:48:45;11.80;99.90
18733;DHT22;9495;51.210;2.934;2023-01-06T10:51:34;11.80;99.90
18733;DHT22;9495;51.210;2.934;2023-01-06T10:54:06;11.80;99.90
18733;DHT22;9495;51.210;2.934;2023-01-06T10:56:36;11.80;99.90
18733;DHT22;9495;51.210;2.934;2023-01-06T10:59:08;11.80;99.90
18733;DHT22;9495;51.210;2.934;2023-01-06T11:01:47;11.80;99.90
18733;DHT22;9495;51.210;2.934;2023-01-06T11:04:17;11.80;99.90
18733;DHT22;9495;51.210;2.934;2023-01-06T11:06:49;11.90;99.90
18733;DHT22;9495;51.210;2.934;2023-01-06T11:09:24;11.80;99.90
18733;DHT22;9495;51.210;2.934;2023-01-06T11:11:54;11.80;99.90
18733;DHT22;9495;51.210;2.934;2023-01-06T11:14:28;11.80;99.90
18733;DHT22;9495;51.210;2.934;2023-01-06T11:17:00;11.80;99.90
18733;DHT22;9495;51.210;2.934;2023-01-06T11:19:34;11.80;99.90
18733;DHT22;9495;51.210;2.934;2023-01-06T11:22:04;11.80;99.90
18733;DHT22;9495;51.210;2.934;2023-01-06T11:24:48;11.80;99.90
18733;DHT22;9495;51.210;2.934;2023-01-06T11:27:17;11.80;99.90
18733;DHT22;9495;51.210;2.934;2023-01-06T11:29:47;11.90;99.90
18733;DHT22;9495;51.210;2.934;2023-01-06T11:32:19;11.90;99.90
18733;DHT22;9495;51.210;2.934;2023-01-06T11:34:53;11.90;99.90
18733;DHT22;9495;51.210;2.934;2023-01-06T11:37:31;11.90;99.90
18733;DHT22;9495;51.210;2.934;2023-01-06T11:40:01;12.00;99.90
18733;DHT22;9495;51.210;2.934;2023-01-06T11:42:38;12.40;99.90
18733;DHT22;9495;51.210;2.934;2023-01-06T11:45:29;12.10;99.90
18733;DHT22;9495;51.210;2.934;2023-01-06T11:48:00;12.10;99.90
18733;DHT22;9495;51.210;2.934;2023-01-06T11:50:30;12.10;99.90
18733;DHT22;9495;51.210;2.934;2023-01-06T11:52:59;12.60;99.90
18733;DHT22;9495;51.210;2.934;2023-01-06T11:55:28;13.70;99.90
18733;DHT22;9495;51.210;2.934;2023-01-06T11:58:00;14.50;99.90
18733;DHT22;9495;51.210;2.934;2023-01-06T12:00:40;15.40;99.90
18733;DHT22;9495;51.210;2.934;2023-01-06T12:03:16;15.50;99.90
18733;DHT22;9495;51.210;2.934;2023-01-06T12:05:53;15.90;99.90
18733;DHT22;9495;51.210;2.934;2023-01-06T12:08:25;14.80;99.90
18733;DHT22;9495;51.210;2.934;2023-01-06T12:10:57;15.20;99.90
18733;DHT22;9495;51.210;2.934;2023-01-06T12:13:26;14.40;99.90
18733;DHT22;9495;51.210;2.934;2023-01-06T12:16:00;14.00;99.90
18733;DHT22;9495;51.210;2.934;2023-01-06T12:18:33;14.20;99.90
18733;DHT22;9495;51.210;2.934;2023-01-06T12:21:03;14.90;99.90
18733;DHT22;9495;51.210;2.934;2023-01-06T12:23:35;14.40;99.90
18733;DHT22;9495;51.210;2.934;2023-01-06T12:26:10;14.40;99.90
18733;DHT22;9495;51.210;2.934;2023-01-06T12:28:42;14.00;99.90
18733;DHT22;9495;51.210;2.934;2023-01-06T12:31:17;13.90;99.90
18733;DHT22;9495;51.210;2.934;2023-01-06T12:33:51;14.30;99.90
18733;DHT22;9495;51.210;2.934;2023-01-06T12:36:27;14.80;99.90
18733;DHT22;9495;51.210;2.934;2023-01-06T12:38:59;14.60;99.90
18733;DHT22;9495;51.210;2.934;2023-01-06T12:41:35;14.20;99.90
18733;DHT22;9495;51.210;2.934;2023-01-06T12:44:14;14.10;99.90
18733;DHT22;9495;51.210;2.934;2023-01-06T12:46:50;14.30;99.90
18733;DHT22;9495;51.210;2.934;2023-01-06T12:49:28;14.20;99.90
18733;DHT22;9495;51.210;2.934;2023-01-06T12:52:02;14.30;99.90
18733;DHT22;9495;51.210;2.934;2023-01-06T12:54:34;14.20;99.90
18733;DHT22;9495;51.210;2.934;2023-01-06T12:57:37;14.00;99.90
18733;DHT22;9495;51.210;2.934;2023-01-06T13:00:21;14.40;99.90
18733;DHT22;9495;51.210;2.934;2023-01-06T13:03:02;15.00;99.90
18733;DHT22;9495;51.210;2.934;2023-01-06T13:05:48;14.50;99.90
18733;DHT22;9495;51.210;2.934;2023-01-06T13:08:24;13.90;99.90
18733;DHT22;9495;51.210;2.934;2023-01-06T13:11:05;13.80;99.90
18733;DHT22;9495;51.210;2.934;2023-01-06T13:13:57;13.70;99.90
18733;DHT22;9495;51.210;2.934;2023-01-06T13:16:34;13.80;99.90
18733;DHT22;9495;51.210;2.934;2023-01-06T13:19:15;13.80;99.90
18733;DHT22;9495;51.210;2.934;2023-01-06T13:21:47;13.80;99.90
18733;DHT22;9495;51.210;2.934;2023-01-06T13:24:37;13.60;99.90
18733;DHT22;9495;51.210;2.934;2023-01-06T13:27:16;14.10;99.90
18733;DHT22;9495;51.210;2.934;2023-01-06T13:30:00;13.80;99.90
18733;DHT22;9495;51.210;2.934;2023-01-06T13:32:41;14.00;99.90
18733;DHT22;9495;51.210;2.934;2023-01-06T13:38:17;13.70;99.90
18733;DHT22;9495;51.210;2.934;2023-01-06T13:40:48;13.60;99.90
18733;DHT22;9495;51.210;2.934;2023-01-06T13:43:21;13.70;99.90
18733;DHT22;9495;51.210;2.934;2023-01-06T13:45:59;13.80;99.90
18733;DHT22;9495;51.210;2.934;2023-01-06T13:48:30;13.70;99.90
18733;DHT22;9495;51.210;2.934;2023-01-06T13:51:02;13.80;99.90
18733;DHT22;9495;51.210;2.934;2023-01-06T13:53:37;13.80;99.90
18733;DHT22;9495;51.210;2.934;2023-01-06T13:56:22;13.60;99.90
18733;DHT22;9495;51.210;2.934;2023-01-06T13:59:18;13.60;99.90
18733;DHT22;9495;51.210;2.934;2023-01-06T14:01:46;13.80;99.90
18733;DHT22;9495;51.210;2.934;2023-01-06T14:04:44;14.50;99.90
18733;DHT22;9495;51.210;2.934;2023-01-06T14:07:13;14.10;99.90
18733;DHT22;9495;51.210;2.934;2023-01-06T14:09:48;14.00;99.90
18733;DHT22;9495;51.210;2.934;2023-01-06T14:12:20;14.40;99.90
18733;DHT22;9495;51.210;2.934;2023-01-06T14:14:58;14.60;99.90
18733;DHT22;9495;51.210;2.934;2023-01-06T14:17:36;15.30;99.90
18733;DHT22;9495;51.210;2.934;2023-01-06T14:20:17;16.00;99.90
18733;DHT22;9495;51.210;2.934;2023-01-06T14:23:01;15.00;99.90
18733;DHT22;9495;51.210;2.934;2023-01-06T14:25:31;15.20;99.90
18733;DHT22;9495;51.210;2.934;2023-01-06T14:28:23;15.80;99.90
18733;DHT22;9495;51.210;2.934;2023-01-06T14:34:09;14.90;99.90
18733;DHT22;9495;51.210;2.934;2023-01-06T14:36:38;14.80;99.90
18733;DHT22;9495;51.210;2.934;2023-01-06T14:39:09;15.20;99.90
18733;DHT22;9495;51.210;2.934;2023-01-06T14:41:58;16.00;99.90
18733;DHT22;9495;51.210;2.934;2023-01-06T14:44:37;15.50;99.90
18733;DHT22;9495;51.210;2.934;2023-01-06T14:47:14;15.60;99.90
18733;DHT22;9495;51.210;2.934;2023-01-06T14:49:47;15.40;99.90
18733;DHT22;9495;51.210;2.934;2023-01-06T14:52:19;14.90;99.90
18733;DHT22;9495;51.210;2.934;2023-01-06T14:54:51;14.80;99.90
18733;DHT22;9495;51.210;2.934;2023-01-06T14:57:28;14.70;99.90
18733;DHT22;9495;51.210;2.934;2023-01-06T15:00:15;14.80;99.90
18733;DHT22;9495;51.210;2.934;2023-01-06T15:02:45;14.90;99.90
18733;DHT22;9495;51.210;2.934;2023-01-06T15:05:18;14.70;99.90
18733;DHT22;9495;51.210;2.934;2023-01-06T15:07:57;15.20;99.90
18733;DHT22;9495;51.210;2.934;2023-01-06T15:10:27;15.40;99.90
18733;DHT22;9495;51.210;2.934;2023-01-06T15:12:58;14.90;99.90
18733;DHT22;9495;51.210;2.934;2023-01-06T15:15:27;14.70;99.90
18733;DHT22;9495;51.210;2.934;2023-01-06T15:17:57;14.30;99.90
18733;DHT22;9495;51.210;2.934;2023-01-06T15:20:29;14.30;99.90
18733;DHT22;9495;51.210;2.934;2023-01-06T15:22:59;15.00;99.90
18733;DHT22;9495;51.210;2.934;2023-01-06T15:25:36;14.80;99.90
18733;DHT22;9495;51.210;2.934;2023-01-06T15:28:22;14.40;99.90
18733;DHT22;9495;51.210;2.934;2023-01-06T15:30:51;14.50;99.90
18733;DHT22;9495;51.210;2.934;2023-01-06T15:33:21;14.30;99.90
18733;DHT22;9495;51.210;2.934;2023-01-06T15:35:51;14.10;99.90
18733;DHT22;9495;51.210;2.934;2023-01-06T15:38:24;13.80;99.90
18733;DHT22;9495;51.210;2.934;2023-01-06T15:40:53;13.70;99.90
18733;DHT22;9495;51.210;2.934;2023-01-06T15:43:25;13.60;99.90
18733;DHT22;9495;51.210;2.934;2023-01-06T15:45:58;13.50;99.90
18733;DHT22;9495;51.210;2.934;2023-01-06T15:48:30;13.40;99.90
18733;DHT22;9495;51.210;2.934;2023-01-06T15:51:00;13.30;99.90
18733;DHT22;9495;51.210;2.934;2023-01-06T15:53:36;13.30;99.90
18733;DHT22;9495;51.210;2.934;2023-01-06T15:56:05;13.30;99.90
18733;DHT22;9495;51.210;2.934;2023-01-06T15:58:37;13.20;99.90
18733;DHT22;9495;51.210;2.934;2023-01-06T16:01:10;13.10;99.90
18733;DHT22;9495;51.210;2.934;2023-01-06T16:03:39;13.20;99.90
18733;DHT22;9495;51.210;2.934;2023-01-06T16:06:09;13.50;99.90
18733;DHT22;9495;51.210;2.934;2023-01-06T16:08:38;13.60;99.90
18733;DHT22;9495;51.210;2.934;2023-01-06T16:11:27;13.80;99.90
18733;DHT22;9495;51.210;2.934;2023-01-06T16:14:29;13.90;99.90
18733;DHT22;9495;51.210;2.934;2023-01-06T16:17:04;14.10;99.90
18733;DHT22;9495;51.210;2.934;2023-01-06T16:19:35;14.30;99.90
18733;DHT22;9495;51.210;2.934;2023-01-06T16:22:13;14.60;99.90
18733;DHT22;9495;51.210;2.934;2023-01-06T16:24:48;14.20;99.90
18733;DHT22;9495;51.210;2.934;2023-01-06T16:27:22;14.20;99.90
18733;DHT22;9495;51.210;2.934;2023-01-06T16:30:07;14.30;99.90
18733;DHT22;9495;51.210;2.934;2023-01-06T16:32:37;14.40;99.90